createdAt,value
2022-12-12T00:01:26.733Z,31.80
2022-12-12T00:03:55.289Z,30.88
2022-12-12T00:06:24.135Z,37.70
2022-12-12T00:08:52.803Z,35.90
2022-12-12T00:11:21.873Z,34.53
2022-12-12T00:13:50.011Z,34.25
2022-12-12T00:16:18.903Z,35.22
2022-12-12T00:18:48.319Z,31.58
2022-12-12T00:21:19.694Z,31.23
2022-12-12T00:23:48.094Z,34.40
2022-12-12T00:26:21.090Z,31.15
2022-12-12T00:28:49.072Z,33.38
2022-12-12T00:31:17.890Z,30.95
2022-12-12T00:33:48.549Z,31.17
2022-12-12T00:36:19.821Z,34.45
2022-12-12T00:38:48.795Z,33.00
2022-12-12T00:41:17.570Z,30.65
2022-12-12T00:43:45.655Z,34.33
2022-12-12T00:46:16.540Z,31.70
2022-12-12T00:48:44.716Z,38.53
2022-12-12T00:51:16.279Z,31.98
2022-12-12T00:53:45.767Z,38.70
2022-12-12T00:56:15.940Z,35.45
2022-12-12T00:58:44.427Z,31.15
2022-12-12T01:01:13.941Z,35.38
2022-12-12T01:03:43.471Z,30.60
2022-12-12T01:06:11.899Z,33.92
2022-12-12T01:08:40.803Z,33.95
2022-12-12T01:11:12.295Z,31.50
2022-12-12T01:13:41.221Z,32.50
2022-12-12T01:16:09.892Z,29.55
2022-12-12T01:18:39.061Z,35.75
2022-12-12T01:21:09.871Z,34.47
2022-12-12T01:23:38.278Z,32.95
2022-12-12T01:26:08.666Z,33.00
2022-12-12T01:28:38.654Z,37.65
2022-12-12T01:31:07.401Z,35.75
2022-12-12T01:33:35.653Z,32.03
2022-12-12T01:36:05.576Z,34.13
2022-12-12T01:38:33.841Z,37.38
2022-12-12T01:41:02.299Z,33.03
2022-12-12T01:43:30.715Z,36.75
2022-12-12T01:46:38.054Z,30.10
2022-12-12T01:49:14.273Z,33.42
2022-12-12T01:51:43.213Z,36.20
2022-12-12T01:54:15.117Z,36.38
2022-12-12T01:56:45.897Z,32.83
2022-12-12T01:59:16.280Z,37.33
2022-12-12T02:01:45.037Z,36.03
2022-12-12T02:04:17.513Z,32.28
2022-12-12T02:06:47.155Z,36.10
2022-12-12T02:09:16.988Z,37.35
2022-12-12T02:11:47.951Z,40.08
2022-12-12T02:14:20.047Z,36.92
2022-12-12T02:17:04.382Z,35.72
2022-12-12T02:20:10.671Z,34.92
2022-12-12T02:25:39.173Z,35.25
2022-12-12T02:28:34.064Z,31.73
2022-12-12T02:31:15.708Z,25.42
2022-12-12T02:33:54.228Z,42.58
2022-12-12T02:36:35.745Z,36.08
2022-12-12T02:39:11.571Z,35.42
2022-12-12T02:41:43.822Z,31.10
2022-12-12T02:44:25.618Z,35.67
2022-12-12T02:47:02.832Z,35.67
2022-12-12T02:49:34.720Z,34.83
2022-12-12T02:52:05.635Z,34.83
2022-12-12T02:54:35.027Z,33.17
2022-12-12T02:57:13.902Z,35.00
2022-12-12T02:59:44.261Z,36.17
2022-12-12T03:02:48.766Z,32.63
2022-12-12T03:05:55.626Z,30.05
2022-12-12T03:08:40.281Z,34.15
2022-12-12T03:11:12.587Z,29.90
2022-12-12T03:13:49.028Z,30.90
2022-12-12T03:16:26.461Z,31.35
2022-12-12T03:19:01.922Z,34.67
2022-12-12T03:21:39.347Z,31.50
2022-12-12T03:24:12.638Z,29.38
2022-12-12T03:26:48.762Z,31.98
2022-12-12T03:29:21.026Z,29.73
2022-12-12T03:31:56.504Z,28.00
2022-12-12T03:34:30.769Z,34.25
2022-12-12T03:37:07.268Z,31.50
2022-12-12T03:39:41.487Z,32.15
2022-12-12T03:42:14.455Z,27.53
2022-12-12T03:44:47.182Z,35.20
2022-12-12T03:47:20.543Z,31.08
2022-12-12T03:49:55.188Z,32.25
2022-12-12T03:52:27.448Z,29.08
2022-12-12T03:55:01.015Z,29.15
2022-12-12T03:57:35.155Z,30.20
2022-12-12T04:00:07.226Z,30.80
2022-12-12T04:02:41.792Z,29.00
2022-12-12T04:05:17.598Z,32.65
2022-12-12T04:07:50.777Z,32.00
2022-12-12T04:10:36.288Z,33.20
2022-12-12T04:15:58.873Z,32.95
2022-12-12T04:18:34.934Z,28.85
2022-12-12T04:21:29.489Z,28.50
2022-12-12T04:24:04.100Z,30.77
2022-12-12T04:26:42.357Z,27.48
2022-12-12T04:29:27.966Z,32.42
2022-12-12T04:31:59.735Z,26.80
2022-12-12T04:34:37.522Z,28.65
2022-12-12T04:37:09.372Z,27.33
2022-12-12T04:39:40.845Z,29.65
2022-12-12T04:42:12.876Z,28.10
2022-12-12T04:44:44.047Z,29.80
2022-12-12T04:47:14.986Z,31.00
2022-12-12T04:49:45.234Z,25.73
2022-12-12T04:52:17.051Z,27.35
2022-12-12T04:54:52.745Z,28.15
2022-12-12T04:57:26.568Z,29.52
2022-12-12T04:59:55.103Z,28.83
2022-12-12T05:02:32.374Z,27.02
2022-12-12T05:05:04.905Z,28.65
2022-12-12T05:07:40.254Z,25.65
2022-12-12T05:10:12.748Z,23.88
2022-12-12T05:12:42.560Z,28.45
2022-12-12T05:15:11.417Z,26.00
2022-12-12T05:17:45.806Z,31.15
2022-12-12T05:20:14.081Z,31.63
2022-12-12T05:22:43.474Z,29.05
2022-12-12T05:25:12.577Z,27.15
2022-12-12T05:27:40.649Z,31.38
2022-12-12T05:30:11.187Z,27.25
2022-12-12T05:32:39.322Z,28.30
2022-12-12T05:35:09.665Z,27.95
2022-12-12T05:37:37.549Z,26.08
2022-12-12T05:40:09.389Z,30.30
2022-12-12T05:42:37.254Z,26.88
2022-12-12T05:45:06.482Z,25.05
2022-12-12T05:47:34.355Z,31.02
2022-12-12T05:50:02.768Z,30.10
2022-12-12T05:52:30.672Z,27.23
2022-12-12T05:54:58.697Z,28.50
2022-12-12T05:57:28.142Z,27.60
2022-12-12T05:59:56.434Z,27.35
2022-12-12T06:02:24.346Z,29.60
2022-12-12T06:04:52.682Z,27.35
2022-12-12T06:07:20.562Z,28.35
2022-12-12T06:09:48.697Z,28.30
2022-12-12T06:12:16.468Z,29.85
2022-12-12T06:14:45.686Z,27.63
2022-12-12T06:17:13.567Z,25.73
2022-12-12T06:19:42.211Z,35.03
2022-12-12T06:22:10.481Z,29.70
2022-12-12T06:24:38.360Z,32.20
2022-12-12T06:27:07.750Z,28.90
2022-12-12T06:29:35.752Z,29.65
2022-12-12T06:32:05.554Z,30.75
2022-12-12T06:34:34.035Z,34.38
2022-12-12T06:37:02.150Z,25.52
2022-12-12T06:39:30.588Z,28.10
2022-12-12T06:41:58.897Z,31.80
2022-12-12T06:44:26.665Z,26.77
2022-12-12T06:46:55.423Z,31.67
2022-12-12T06:49:24.915Z,30.98
2022-12-12T06:51:52.793Z,31.85
2022-12-12T06:54:20.732Z,27.45
2022-12-12T06:56:49.186Z,29.52
2022-12-12T06:59:17.412Z,33.40
2022-12-12T07:01:46.213Z,30.90
2022-12-12T07:04:14.867Z,34.05
2022-12-12T07:06:44.474Z,30.70
2022-12-12T07:09:12.397Z,33.75
2022-12-12T07:11:41.877Z,33.65
2022-12-12T07:14:11.217Z,35.63
2022-12-12T07:16:39.908Z,30.42
2022-12-12T07:19:07.610Z,34.10
2022-12-12T07:21:35.825Z,35.65
2022-12-12T07:24:04.982Z,29.52
2022-12-12T07:26:33.266Z,31.60
2022-12-12T07:29:03.594Z,31.63
2022-12-12T07:31:31.281Z,37.53
2022-12-12T07:33:59.536Z,37.05
2022-12-12T07:36:27.228Z,35.83
2022-12-12T07:38:55.238Z,35.03
2022-12-12T07:41:24.260Z,29.70
2022-12-12T07:43:52.675Z,31.65
2022-12-12T07:46:23.934Z,35.78
2022-12-12T07:48:52.725Z,39.92
2022-12-12T07:51:21.077Z,35.00
2022-12-12T07:53:48.927Z,37.28
2022-12-12T07:56:18.089Z,34.95
2022-12-12T07:58:47.786Z,37.90
2022-12-12T08:01:17.841Z,36.15
2022-12-12T08:03:46.551Z,39.85
2022-12-12T08:06:17.609Z,38.10
2022-12-12T08:08:46.417Z,32.35
2022-12-12T08:11:16.423Z,36.03
2022-12-12T08:13:45.143Z,37.03
2022-12-12T08:16:16.870Z,41.60
2022-12-12T08:18:45.883Z,40.92
2022-12-12T08:21:18.791Z,38.95
2022-12-12T08:23:52.506Z,34.72
2022-12-12T08:26:20.847Z,34.53
2022-12-12T08:28:49.874Z,41.80
2022-12-12T08:31:20.654Z,36.92
2022-12-12T08:33:50.484Z,43.15
2022-12-12T08:41:57.985Z,32.20
2022-12-12T08:44:25.770Z,36.13
2022-12-12T08:46:55.148Z,34.13
2022-12-12T08:49:23.159Z,37.85
2022-12-12T08:51:54.440Z,37.92
2022-12-12T08:57:11.391Z,37.08
2022-12-12T08:59:39.275Z,32.05
2022-12-12T09:02:10.000Z,33.10
2022-12-12T09:04:38.175Z,32.80
2022-12-12T09:07:08.633Z,33.53
2022-12-12T09:09:36.806Z,33.42
2022-12-12T09:12:04.662Z,34.70
2022-12-12T09:14:32.718Z,33.85
2022-12-12T09:17:00.333Z,36.05
2022-12-12T09:19:29.571Z,33.38
2022-12-12T09:21:57.577Z,33.47
2022-12-12T09:24:26.201Z,33.67
2022-12-12T09:26:53.943Z,35.35
2022-12-12T09:29:22.048Z,32.22
2022-12-12T09:31:49.814Z,34.53
2022-12-12T09:34:17.698Z,31.73
2022-12-12T09:36:46.727Z,30.08
2022-12-12T09:39:14.696Z,33.10
2022-12-12T09:41:42.668Z,33.05
2022-12-12T09:44:15.883Z,33.42
2022-12-12T09:46:47.214Z,31.13
2022-12-12T09:49:18.336Z,32.05
2022-12-12T09:51:50.530Z,29.75
2022-12-12T09:54:21.294Z,27.48
2022-12-12T09:57:03.310Z,29.15
2022-12-12T09:59:38.916Z,26.20
2022-12-12T10:02:27.254Z,30.60
2022-12-12T10:05:01.474Z,32.03
2022-12-12T10:07:36.532Z,34.45
2022-12-12T10:12:39.096Z,25.55
2022-12-12T10:15:14.126Z,28.98
2022-12-12T10:17:44.914Z,26.90
2022-12-12T10:20:17.647Z,26.60
2022-12-12T10:22:50.696Z,23.58
2022-12-12T10:25:21.872Z,26.92
2022-12-12T10:27:53.524Z,25.55
2022-12-12T10:30:22.272Z,25.73
2022-12-12T10:33:14.366Z,30.50
2022-12-12T10:35:53.747Z,25.42
2022-12-12T10:38:38.303Z,25.65
2022-12-12T10:41:12.957Z,25.77
2022-12-12T10:43:46.983Z,26.35
2022-12-12T10:46:23.208Z,31.17
2022-12-12T10:48:52.623Z,25.25
2022-12-12T10:51:23.824Z,22.95
2022-12-12T10:53:53.923Z,25.58
2022-12-12T10:56:24.160Z,23.67
2022-12-12T10:58:56.471Z,25.23
2022-12-12T11:02:00.650Z,23.30
2022-12-12T11:04:17.111Z,24.15
2022-12-12T11:06:48.833Z,27.30
2022-12-12T11:09:20.470Z,25.30
2022-12-12T11:11:59.295Z,23.73
2022-12-12T11:14:33.258Z,23.67
2022-12-12T11:17:00.947Z,22.55
2022-12-12T11:19:37.324Z,25.73
2022-12-12T11:22:05.693Z,22.98
2022-12-12T11:24:35.920Z,24.50
2022-12-12T11:27:06.481Z,27.50
2022-12-12T11:29:43.550Z,40.72
2022-12-12T11:32:15.792Z,38.67
2022-12-12T11:34:49.032Z,27.88
2022-12-12T11:37:18.835Z,29.13
2022-12-12T11:39:51.889Z,27.65
2022-12-12T11:42:23.033Z,23.90
2022-12-12T11:45:00.423Z,25.52
2022-12-12T11:47:31.143Z,28.48
2022-12-12T11:50:00.343Z,41.72
2022-12-12T11:52:31.398Z,24.83
2022-12-12T11:55:01.731Z,33.92
2022-12-12T11:57:56.652Z,32.38
2022-12-12T12:00:39.417Z,29.60
2022-12-12T12:06:26.220Z,25.23
2022-12-12T12:09:23.343Z,38.03
2022-12-12T12:12:01.293Z,29.60
2022-12-12T12:14:50.339Z,27.95
2022-12-12T12:17:29.144Z,23.38
2022-12-12T12:20:08.367Z,30.92
2022-12-12T12:22:50.442Z,22.60
2022-12-12T12:25:31.337Z,23.77
2022-12-12T12:28:20.705Z,26.23
2022-12-12T12:30:57.924Z,22.23
2022-12-12T12:33:41.294Z,24.60
2022-12-12T12:36:21.048Z,23.38
2022-12-12T12:38:57.953Z,24.33
2022-12-12T12:41:36.082Z,22.38
2022-12-12T12:44:25.714Z,24.92
2022-12-12T12:47:03.562Z,24.77
2022-12-12T12:49:35.563Z,21.35
2022-12-12T12:52:10.979Z,21.02
2022-12-12T12:54:40.683Z,23.45
2022-12-12T12:57:13.327Z,35.55
2022-12-12T12:59:48.419Z,30.73
2022-12-12T13:02:27.186Z,27.45
2022-12-12T13:05:06.833Z,25.77
2022-12-12T13:07:43.585Z,29.33
2022-12-12T13:10:22.732Z,34.72
2022-12-12T13:12:57.020Z,28.55
2022-12-12T13:15:30.087Z,25.37
2022-12-12T13:18:04.034Z,21.15
2022-12-12T13:20:35.797Z,25.73
2022-12-12T13:23:35.959Z,29.65
2022-12-12T13:26:10.688Z,23.75
2022-12-12T13:28:42.716Z,22.08
2022-12-12T13:31:34.881Z,23.80
2022-12-12T13:34:06.669Z,25.40
2022-12-12T13:36:38.177Z,23.45
2022-12-12T13:39:09.387Z,22.73
2022-12-12T13:41:58.258Z,24.13
2022-12-12T13:44:38.556Z,20.92
2022-12-12T13:47:14.221Z,21.88
2022-12-12T13:49:53.139Z,28.10
2022-12-12T13:52:26.260Z,22.42
2022-12-12T13:54:57.416Z,32.95
2022-12-12T13:57:34.960Z,26.63
2022-12-12T14:00:19.966Z,26.00
2022-12-12T14:03:01.466Z,23.00
2022-12-12T14:05:33.643Z,21.33
2022-12-12T14:08:09.166Z,21.88
2022-12-12T14:10:41.009Z,22.63
2022-12-12T14:13:31.820Z,19.92
2022-12-12T14:16:06.504Z,27.67
2022-12-12T14:18:40.859Z,47.45
2022-12-12T14:21:12.129Z,18.17
2022-12-12T14:23:42.404Z,25.20
2022-12-12T14:26:47.785Z,20.33
2022-12-12T14:29:25.171Z,67.00
2022-12-12T14:32:01.348Z,31.65
2022-12-12T14:34:37.064Z,22.15
2022-12-12T14:37:20.457Z,20.83
2022-12-12T14:40:13.842Z,20.50
2022-12-12T14:43:21.066Z,18.63
2022-12-12T14:45:37.419Z,50.42
2022-12-12T14:48:17.661Z,17.60
2022-12-12T14:50:50.860Z,19.38
2022-12-12T14:53:21.185Z,16.85
2022-12-12T14:55:55.581Z,19.05
2022-12-12T14:58:27.788Z,18.97
2022-12-12T15:00:59.138Z,20.98
2022-12-12T15:03:32.479Z,21.48
2022-12-12T15:06:33.126Z,18.77
2022-12-12T15:09:16.912Z,18.42
2022-12-12T15:11:46.111Z,18.13
2022-12-12T15:14:20.718Z,18.45
2022-12-12T15:16:53.954Z,19.17
2022-12-12T15:19:27.388Z,17.15
2022-12-12T15:21:58.044Z,18.42
2022-12-12T15:24:28.644Z,16.20
2022-12-12T15:26:58.128Z,19.05
2022-12-12T15:29:28.941Z,16.65
2022-12-12T15:32:00.787Z,19.20
2022-12-12T15:34:41.508Z,17.30
2022-12-12T15:37:27.046Z,19.23
2022-12-12T15:40:00.924Z,27.98
2022-12-12T15:42:29.710Z,17.55
2022-12-12T15:44:57.947Z,16.77
2022-12-12T15:47:26.303Z,20.10
2022-12-12T15:49:55.169Z,18.38
2022-12-12T15:52:30.373Z,17.08
2022-12-12T15:57:46.559Z,19.50
2022-12-12T16:00:29.306Z,16.73
2022-12-12T16:03:04.029Z,22.60
2022-12-12T16:05:34.914Z,22.10
2022-12-12T16:08:32.228Z,24.45
2022-12-12T16:11:02.621Z,18.63
2022-12-12T16:13:38.361Z,18.00
2022-12-12T16:16:34.837Z,20.83
2022-12-12T16:19:03.746Z,19.55
2022-12-12T16:21:32.492Z,18.70
2022-12-12T16:24:13.852Z,19.15
2022-12-12T16:26:41.908Z,17.70
2022-12-12T16:29:10.621Z,22.63
2022-12-12T16:31:38.902Z,18.58
2022-12-12T16:34:07.797Z,19.05
2022-12-12T16:36:42.018Z,20.77
2022-12-12T16:39:14.339Z,23.15
2022-12-12T16:41:42.871Z,22.42
2022-12-12T16:44:12.472Z,23.80
2022-12-12T16:46:40.677Z,19.00
2022-12-12T16:49:15.137Z,20.63
2022-12-12T16:51:43.874Z,27.48
2022-12-12T16:54:18.468Z,19.65
2022-12-12T16:56:52.618Z,21.13
2022-12-12T16:59:21.764Z,18.63
2022-12-12T17:01:49.965Z,20.40
2022-12-12T17:04:23.343Z,24.30
2022-12-12T17:06:52.201Z,22.38
2022-12-12T17:09:29.993Z,21.67
2022-12-12T17:11:58.278Z,20.05
2022-12-12T17:14:27.842Z,21.00
2022-12-12T17:16:56.307Z,26.02
2022-12-12T17:19:26.645Z,21.80
2022-12-12T17:21:55.323Z,27.63
2022-12-12T17:24:24.926Z,24.17
2022-12-12T17:26:53.463Z,24.45
2022-12-12T17:29:21.594Z,27.42
2022-12-12T17:31:50.528Z,31.13
2022-12-12T17:34:18.628Z,25.88
2022-12-12T17:36:46.710Z,29.02
2022-12-12T17:39:14.920Z,25.58
2022-12-12T17:41:44.881Z,27.40
2022-12-12T17:44:13.033Z,30.02
2022-12-12T17:46:42.221Z,30.42
2022-12-12T17:49:10.116Z,26.20
2022-12-12T17:51:38.448Z,25.13
2022-12-12T17:54:06.296Z,27.27
2022-12-12T17:56:34.769Z,25.30
2022-12-12T17:59:06.160Z,29.20
2022-12-12T18:01:34.724Z,51.38
2022-12-12T18:04:05.585Z,49.95
2022-12-12T18:06:35.955Z,42.10
2022-12-12T18:09:05.715Z,38.00
2022-12-12T18:11:36.089Z,35.83
2022-12-12T18:14:08.100Z,33.20
2022-12-12T18:16:37.831Z,36.83
2022-12-12T18:19:05.824Z,30.73
2022-12-12T18:21:59.926Z,30.15
2022-12-12T18:24:25.699Z,26.85
2022-12-12T18:26:54.434Z,28.02
2022-12-12T18:29:24.713Z,28.60
2022-12-12T18:31:53.422Z,34.28
2022-12-12T18:34:22.653Z,29.10
2022-12-12T18:36:50.918Z,40.22
2022-12-12T18:39:19.051Z,42.03
2022-12-12T18:41:49.878Z,53.83
2022-12-12T18:44:17.959Z,127.68
2022-12-12T18:46:47.296Z,77.05
2022-12-12T18:49:18.602Z,62.10
2022-12-12T18:51:46.874Z,43.55
2022-12-12T18:54:16.577Z,36.45
2022-12-12T18:56:45.544Z,33.42
2022-12-12T18:59:13.735Z,39.92
2022-12-12T19:01:41.899Z,39.80
2022-12-12T19:04:14.350Z,36.75
2022-12-12T19:06:44.462Z,36.57
2022-12-12T19:09:15.552Z,32.72
2022-12-12T19:11:44.278Z,33.47
2022-12-12T19:14:14.490Z,31.90
2022-12-12T19:16:42.510Z,34.90
2022-12-12T19:19:12.665Z,32.55
2022-12-12T19:21:42.577Z,30.65
2022-12-12T19:24:12.719Z,26.98
2022-12-12T19:26:43.746Z,29.17
2022-12-12T19:29:13.913Z,30.85
2022-12-12T19:31:42.102Z,32.08
2022-12-12T19:34:13.065Z,33.00
2022-12-12T19:36:41.502Z,32.38
2022-12-12T19:39:10.219Z,29.30
2022-12-12T19:41:38.761Z,37.15
2022-12-12T19:44:08.941Z,31.17
2022-12-12T19:46:37.292Z,32.15
2022-12-12T19:49:08.388Z,35.17
2022-12-12T19:51:40.152Z,36.22
2022-12-12T19:54:10.293Z,31.58
2022-12-12T19:56:41.333Z,38.38
2022-12-12T19:59:11.569Z,33.67
2022-12-12T20:01:39.725Z,35.28
2022-12-12T20:04:10.382Z,33.50
2022-12-12T20:06:45.251Z,30.50
2022-12-12T20:09:16.370Z,36.78
2022-12-12T20:11:45.482Z,36.58
2022-12-12T20:14:16.750Z,38.25
2022-12-12T20:16:45.522Z,37.85
2022-12-12T20:19:14.636Z,37.78
2022-12-12T20:22:02.176Z,36.25
2022-12-12T20:24:32.017Z,41.92
2022-12-12T20:27:00.469Z,43.03
2022-12-12T20:29:29.188Z,39.20
2022-12-12T20:31:59.783Z,42.10
2022-12-12T20:34:28.127Z,36.92
2022-12-12T20:36:57.970Z,39.42
2022-12-12T20:39:26.199Z,41.40
2022-12-12T20:41:55.169Z,38.08
2022-12-12T20:44:24.276Z,49.08
2022-12-12T20:46:52.572Z,45.45
2022-12-12T20:49:24.124Z,41.80
2022-12-12T20:51:59.413Z,39.10
2022-12-12T20:54:30.308Z,41.78
2022-12-12T20:56:59.289Z,37.67
2022-12-12T20:59:27.797Z,38.97
2022-12-12T21:01:56.401Z,39.28
2022-12-12T21:04:25.032Z,35.10
2022-12-12T21:06:52.961Z,37.75
2022-12-12T21:09:26.709Z,38.70
2022-12-12T21:11:58.348Z,39.95
2022-12-12T21:14:27.674Z,43.35
2022-12-12T21:16:56.048Z,40.42
2022-12-12T21:19:24.695Z,38.63
2022-12-12T21:21:53.395Z,41.17
2022-12-12T21:24:22.783Z,40.17
2022-12-12T21:26:51.717Z,39.50
2022-12-12T21:29:20.981Z,45.05
2022-12-12T21:31:52.176Z,43.53
2022-12-12T21:34:21.572Z,40.95
2022-12-12T21:36:52.064Z,39.67
2022-12-12T21:39:20.008Z,40.70
2022-12-12T21:41:47.929Z,42.95
2022-12-12T21:44:16.214Z,40.08
2022-12-12T21:46:45.503Z,38.30
2022-12-12T21:49:28.162Z,38.42
2022-12-12T21:51:57.625Z,33.78
2022-12-12T21:54:26.225Z,34.05
2022-12-12T21:56:54.899Z,33.28
2022-12-12T21:59:23.275Z,35.55
2022-12-12T22:01:54.933Z,38.55
2022-12-12T22:04:22.916Z,35.17
2022-12-12T22:06:51.621Z,34.47
2022-12-12T22:09:19.667Z,33.00
2022-12-12T22:11:52.191Z,33.58
2022-12-12T22:14:30.738Z,34.60
2022-12-12T22:17:00.423Z,31.23
2022-12-12T22:19:28.397Z,31.75
2022-12-12T22:21:56.360Z,33.47
2022-12-12T22:24:24.629Z,35.50
2022-12-12T22:26:52.713Z,37.58
2022-12-12T22:29:21.819Z,35.63
2022-12-12T22:31:52.272Z,37.47
2022-12-12T22:34:24.835Z,43.22
2022-12-12T22:36:54.169Z,37.80
2022-12-12T22:39:24.030Z,38.10
2022-12-12T22:41:52.494Z,40.08
2022-12-12T22:44:22.636Z,45.92
2022-12-12T22:46:52.647Z,49.58
2022-12-12T22:49:26.058Z,41.00
2022-12-12T22:51:57.472Z,41.95
2022-12-12T22:54:26.060Z,42.90
2022-12-12T22:56:54.855Z,46.47
2022-12-12T22:59:22.809Z,46.05
2022-12-12T23:01:51.188Z,47.85
2022-12-12T23:04:19.224Z,55.22
2022-12-12T23:06:48.966Z,50.40
2022-12-12T23:09:23.110Z,42.95
2022-12-12T23:11:51.482Z,45.97
2022-12-12T23:14:22.785Z,43.17
2022-12-12T23:16:51.808Z,41.78
2022-12-12T23:19:21.294Z,37.60
2022-12-12T23:21:51.010Z,43.17
2022-12-12T23:24:19.357Z,40.28
2022-12-12T23:26:47.215Z,36.15
2022-12-12T23:29:17.329Z,40.40
2022-12-12T23:31:45.746Z,39.53
2022-12-12T23:34:18.083Z,36.60
2022-12-12T23:36:48.805Z,40.00
2022-12-12T23:39:19.179Z,36.90
2022-12-12T23:41:47.143Z,39.08
2022-12-12T23:44:17.651Z,39.40
2022-12-12T23:46:46.965Z,34.80
2022-12-12T23:49:16.852Z,38.13
2022-12-12T23:51:47.472Z,38.58
2022-12-12T23:54:18.960Z,35.10
2022-12-12T23:56:48.389Z,34.08
2022-12-12T23:59:18.351Z,36.72
